Time;durP1;ratioP1;P1;durP2;ratioP2;P2;SDS_P1;SDS_P2;PMS_P1;PMS_P2;Temp;Humidity;BMP_temperature;BMP_pressure;BME280_temperature;BME280_humidity;BME280_pressure;Samples;Min_cycle;Max_cycle;Signal;HPM_P1;HPM_P2
2022/07/01 00:00:09;;;;;;;1.90;1.40;;;;;;;;;;5051671;28;20029;-75
2022/07/01 00:02:34;;;;;;;2.75;1.80;;;;;;;;;;5051750;28;20025;-74
2022/07/01 00:05:00;;;;;;;2.78;1.63;;;;;;;;;;5051795;28;20377;-76
2022/07/01 00:07:25;;;;;;;3.00;2.00;;;;;;;;;;5051764;28;20033;-73
2022/07/01 00:09:50;;;;;;;2.50;1.83;;;;;;;;;;5051511;28;20514;-73
2022/07/01 00:12:16;;;;;;;2.88;1.77;;;;;;;;;;5051681;28;20048;-71
2022/07/01 00:14:42;;;;;;;3.05;1.80;;;;;;;;;;5051435;28;20116;-73
2022/07/01 00:17:07;;;;;;;2.92;1.77;;;;;;;;;;5051606;28;20028;-73
2022/07/01 00:19:33;;;;;;;3.15;1.60;;;;;;;;;;5051545;28;20064;-73
2022/07/01 00:21:58;;;;;;;4.10;1.58;;;;;;;;;;5051401;28;20021;-72
2022/07/01 00:24:24;;;;;;;4.57;1.42;;;;;;;;;;5051603;28;20474;-71
2022/07/01 00:26:49;;;;;;;1.85;1.42;;;;;;;;;;5051566;28;20028;-73
2022/07/01 00:29:14;;;;;;;3.08;1.48;;;;;;;;;;5051678;28;20479;-75
2022/07/01 00:31:40;;;;;;;3.10;1.42;;;;;;;;;;5051476;28;20028;-73
2022/07/01 00:34:05;;;;;;;2.92;1.38;;;;;;;;;;5051688;28;20024;-72
2022/07/01 00:36:30;;;;;;;1.90;1.30;;;;;;;;;;5051284;28;20056;-74
2022/07/01 00:38:56;;;;;;;2.05;1.10;;;;;;;;;;5051020;28;20103;-72
2022/07/01 00:41:22;;;;;;;1.67;1.00;;;;;;;;;;5050952;28;20238;-72
2022/07/01 00:43:47;;;;;;;1.80;1.40;;;;;;;;;;5051151;28;20038;-72
2022/07/01 00:46:12;;;;;;;3.00;1.00;;;;;;;;;;5051089;28;20032;-71
2022/07/01 00:48:38;;;;;;;3.40;1.00;;;;;;;;;;5050887;28;20025;-72
2022/07/01 00:51:03;;;;;;;1.40;0.80;;;;;;;;;;5050749;28;20029;-72
2022/07/01 00:53:29;;;;;;;3.08;0.90;;;;;;;;;;5050841;28;20029;-73
2022/07/01 00:55:55;;;;;;;1.52;1.00;;;;;;;;;;5050829;28;20029;-71
2022/07/01 00:58:20;;;;;;;1.70;0.90;;;;;;;;;;5050736;28;20694;-73
2022/07/01 01:00:46;;;;;;;1.17;0.82;;;;;;;;;;5050821;28;20431;-72
2022/07/01 01:03:11;;;;;;;1.40;1.00;;;;;;;;;;5050770;28;20025;-73
2022/07/01 01:05:37;;;;;;;1.40;0.93;;;;;;;;;;5050654;28;20086;-73
2022/07/01 01:08:03;;;;;;;1.42;0.90;;;;;;;;;;5050468;28;20463;-72
2022/07/01 01:10:30;;;;;;;1.38;0.80;;;;;;;;;;5050523;28;20498;-73
2022/07/01 01:12:56;;;;;;;0.88;0.88;;;;;;;;;;5050511;28;20025;-70
2022/07/01 01:15:21;;;;;;;1.25;0.90;;;;;;;;;;5050737;28;20033;-71
2022/07/01 01:17:47;;;;;;;3.08;1.00;;;;;;;;;;5050501;28;20111;-72
2022/07/01 01:20:19;;;;;;;2.05;1.00;;;;;;;;;;5050137;28;20101;-73
2022/07/01 01:22:46;;;;;;;1.50;1.40;;;;;;;;;;5050568;28;20056;-75
2022/07/01 01:25:12;;;;;;;1.27;0.80;;;;;;;;;;5050364;28;20072;-71
2022/07/01 01:27:37;;;;;;;0.82;0.75;;;;;;;;;;5050028;28;20435;-70
2022/07/01 01:30:05;;;;;;;2.58;0.98;;;;;;;;;;5050068;28;20525;-72
2022/07/01 01:32:30;;;;;;;1.05;0.90;;;;;;;;;;5049979;28;20033;-72
2022/07/01 01:34:56;;;;;;;1.42;1.10;;;;;;;;;;5050221;28;20033;-69
2022/07/01 01:37:21;;;;;;;1.88;1.20;;;;;;;;;;5050176;28;20082;-71
2022/07/01 01:39:46;;;;;;;2.35;1.23;;;;;;;;;;5048819;28;20131;-72
2022/07/01 01:42:11;;;;;;;2.33;1.10;;;;;;;;;;5049973;28;20025;-71
2022/07/01 01:44:37;;;;;;;2.00;1.20;;;;;;;;;;5050058;28;20356;-73
2022/07/01 01:47:02;;;;;;;1.55;1.15;;;;;;;;;;5050101;28;20029;-73
2022/07/01 01:49:28;;;;;;;1.60;1.15;;;;;;;;;;5049793;28;20028;-72
2022/07/01 01:51:54;;;;;;;1.30;1.10;;;;;;;;;;5049712;28;20029;-74
2022/07/01 01:54:20;;;;;;;1.85;1.15;;;;;;;;;;5049652;28;20031;-71
2022/07/01 01:56:45;;;;;;;2.17;1.25;;;;;;;;;;5049768;28;20025;-71
2022/07/01 01:59:12;;;;;;;1.20;1.10;;;;;;;;;;5049766;28;20017;-72
2022/07/01 02:01:38;;;;;;;1.75;1.23;;;;;;;;;;5049642;28;20024;-71
2022/07/01 02:04:03;;;;;;;1.42;1.00;;;;;;;;;;5049545;28;20642;-70
2022/07/01 02:06:28;;;;;;;1.30;1.13;;;;;;;;;;5049530;28;20027;-72
2022/07/01 02:08:54;;;;;;;2.53;1.60;;;;;;;;;;5049326;28;20033;-72
2022/07/01 02:11:19;;;;;;;2.03;1.35;;;;;;;;;;5049337;28;20037;-71
2022/07/01 02:13:44;;;;;;;2.33;1.35;;;;;;;;;;5049333;28;20068;-71
2022/07/01 02:16:11;;;;;;;2.40;1.58;;;;;;;;;;5049461;28;20056;-71
2022/07/01 02:18:37;;;;;;;1.42;1.27;;;;;;;;;;5049022;28;20027;-71
2022/07/01 02:21:02;;;;;;;1.30;1.20;;;;;;;;;;5047964;28;20025;-71
2022/07/01 02:23:29;;;;;;;2.28;1.50;;;;;;;;;;5049732;28;20028;-71
2022/07/01 02:25:55;;;;;;;3.40;1.20;;;;;;;;;;5049227;28;20082;-71
2022/07/01 02:28:20;;;;;;;2.00;1.48;;;;;;;;;;5048685;28;20037;-71
2022/07/01 02:30:45;;;;;;;2.90;1.30;;;;;;;;;;5049118;28;20459;-71
2022/07/01 02:33:11;;;;;;;2.17;1.60;;;;;;;;;;5048917;28;20039;-72
2022/07/01 02:35:38;;;;;;;4.20;2.00;;;;;;;;;;5047683;28;20036;-70
2022/07/01 02:38:04;;;;;;;3.53;1.50;;;;;;;;;;5048669;28;20021;-71
2022/07/01 02:40:29;;;;;;;2.67;1.85;;;;;;;;;;5048701;28;20020;-71
2022/07/01 02:42:55;;;;;;;3.53;1.60;;;;;;;;;;5048880;28;20036;-71
2022/07/01 02:45:20;;;;;;;2.00;1.55;;;;;;;;;;5048813;28;20082;-71
2022/07/01 02:47:46;;;;;;;1.60;1.50;;;;;;;;;;5047380;28;20033;-71
2022/07/01 02:50:13;;;;;;;2.05;1.70;;;;;;;;;;5048639;28;20102;-71
2022/07/01 02:52:40;;;;;;;1.88;1.70;;;;;;;;;;5048821;28;20106;-71
2022/07/01 02:55:08;;;;;;;2.88;1.50;;;;;;;;;;5048862;28;20562;-71
2022/07/01 02:57:34;;;;;;;1.60;1.50;;;;;;;;;;5048904;28;20037;-71
2022/07/01 02:59:59;;;;;;;1.95;1.30;;;;;;;;;;5048414;28;20029;-70
2022/07/01 03:02:25;;;;;;;3.65;1.70;;;;;;;;;;5048681;28;20040;-71
2022/07/01 03:04:52;;;;;;;1.55;1.38;;;;;;;;;;5048770;28;20078;-70
2022/07/01 03:07:18;;;;;;;2.03;1.20;;;;;;;;;;5048903;28;20049;-70
2022/07/01 03:09:44;;;;;;;2.33;1.55;;;;;;;;;;5048422;28;20027;-70
2022/07/01 03:12:29;;;;;;;1.60;1.50;;;;;;;;;;5048543;28;20112;-69
2022/07/01 03:14:59;;;;;;;2.10;1.52;;;;;;;;;;5049002;28;20487;-70
2022/07/01 03:17:27;;;;;;;3.08;1.40;;;;;;;;;;5048715;28;20032;-70
2022/07/01 03:19:52;;;;;;;2.50;1.90;;;;;;;;;;5048296;28;20032;-71
2022/07/01 03:22:20;;;;;;;2.33;1.70;;;;;;;;;;5048562;28;20021;-71
2022/07/01 03:24:46;;;;;;;3.30;1.38;;;;;;;;;;5048473;28;20023;-71
2022/07/01 03:27:11;;;;;;;2.28;1.75;;;;;;;;;;5048415;28;20021;-71
2022/07/01 03:29:37;;;;;;;3.22;1.48;;;;;;;;;;5048126;28;20031;-71
2022/07/01 03:32:02;;;;;;;2.83;1.75;;;;;;;;;;5048454;28;20029;-70
2022/07/01 03:34:28;;;;;;;2.35;2.00;;;;;;;;;;5048373;28;20127;-71
2022/07/01 03:36:53;;;;;;;2.25;1.60;;;;;;;;;;5048449;28;20438;-71
2022/07/01 03:39:19;;;;;;;4.35;1.60;;;;;;;;;;5048081;28;20071;-71
2022/07/01 03:41:44;;;;;;;1.60;1.50;;;;;;;;;;5048195;28;20406;-71
2022/07/01 03:44:09;;;;;;;1.90;1.70;;;;;;;;;;5048306;28;20479;-71
2022/07/01 03:46:35;;;;;;;2.42;1.52;;;;;;;;;;5048340;28;20040;-70
2022/07/01 03:49:02;;;;;;;2.55;1.77;;;;;;;;;;5048580;28;20033;-71
2022/07/01 03:51:27;;;;;;;2.38;1.60;;;;;;;;;;5051946;28;20099;-71
2022/07/01 03:56:36;;;;;;;3.97;1.40;;;;;;;;;;5051964;28;20115;-72
2022/07/01 03:59:01;;;;;;;2.67;1.60;;;;;;;;;;5051799;28;20032;-71
2022/07/01 04:01:27;;;;;;;4.18;1.90;;;;;;;;;;5051750;28;20075;-72
2022/07/01 04:03:52;;;;;;;1.88;1.38;;;;;;;;;;5051836;28;20025;-71
2022/07/01 04:06:18;;;;;;;1.50;1.40;;;;;;;;;;5051931;28;20029;-70
2022/07/01 04:08:44;;;;;;;3.67;1.80;;;;;;;;;;5051563;28;20029;-70
2022/07/01 04:11:09;;;;;;;1.70;1.38;;;;;;;;;;5051597;28;20040;-70
2022/07/01 04:13:39;;;;;;;3.95;1.50;;;;;;;;;;5051861;28;20376;-70
2022/07/01 04:16:04;;;;;;;2.17;1.70;;;;;;;;;;5051782;28;20103;-71
2022/07/01 04:18:30;;;;;;;2.85;1.50;;;;;;;;;;5051383;28;20132;-70
2022/07/01 04:23:39;;;;;;;2.10;1.40;;;;;;;;;;5051706;28;20028;-72
2022/07/01 04:26:04;;;;;;;3.85;1.48;;;;;;;;;;5051299;28;20025;-71
2022/07/01 04:28:30;;;;;;;2.50;1.60;;;;;;;;;;5051151;28;20033;-71
2022/07/01 04:30:55;;;;;;;1.40;1.27;;;;;;;;;;5051208;28;20112;-71
2022/07/01 04:33:21;;;;;;;4.13;1.50;;;;;;;;;;5051375;28;20021;-71
2022/07/01 04:35:46;;;;;;;2.25;1.40;;;;;;;;;;5051068;28;20032;-71
2022/07/01 04:38:11;;;;;;;2.55;1.33;;;;;;;;;;5050833;28;20025;-70
2022/07/01 04:40:37;;;;;;;1.38;1.27;;;;;;;;;;5050783;28;20093;-70
2022/07/01 04:43:02;;;;;;;1.85;1.38;;;;;;;;;;5051065;28;20375;-71
2022/07/01 04:45:27;;;;;;;3.75;1.52;;;;;;;;;;5049624;28;20148;-71
2022/07/01 04:47:52;;;;;;;6.55;1.48;;;;;;;;;;5050969;28;20028;-70
2022/07/01 04:50:18;;;;;;;3.10;1.60;;;;;;;;;;5050772;28;20032;-71
2022/07/01 04:52:43;;;;;;;2.95;1.40;;;;;;;;;;5050644;28;20104;-71
2022/07/01 04:55:08;;;;;;;2.83;1.35;;;;;;;;;;5050725;28;20033;-71
2022/07/01 04:57:34;;;;;;;3.00;1.35;;;;;;;;;;5049707;28;20036;-70
2022/07/01 04:59:59;;;;;;;2.72;1.40;;;;;;;;;;5050086;28;20044;-71
2022/07/01 05:02:24;;;;;;;4.60;1.40;;;;;;;;;;5050001;28;20028;-73
2022/07/01 05:04:50;;;;;;;1.88;1.30;;;;;;;;;;5050724;28;20029;-71
2022/07/01 05:07:31;;;;;;;3.10;1.75;;;;;;;;;;5050623;28;20471;-71
2022/07/01 05:09:56;;;;;;;1.52;1.02;;;;;;;;;;5050417;28;20511;-71
2022/07/01 05:12:22;;;;;;;2.10;1.20;;;;;;;;;;5050419;28;20035;-70
2022/07/01 05:14:49;;;;;;;3.17;1.30;;;;;;;;;;5050579;28;20032;-71
2022/07/01 05:17:15;;;;;;;2.97;1.20;;;;;;;;;;5050243;28;20033;-70
2022/07/01 05:22:24;;;;;;;2.00;1.20;;;;;;;;;;5050425;28;20028;-72
2022/07/01 05:24:49;;;;;;;2.13;1.20;;;;;;;;;;5050388;28;20029;-71
2022/07/01 05:27:15;;;;;;;1.70;1.25;;;;;;;;;;5050130;28;20025;-71
2022/07/01 05:29:40;;;;;;;5.75;1.60;;;;;;;;;;5049875;28;20035;-69
2022/07/01 05:32:06;;;;;;;2.83;1.50;;;;;;;;;;5049956;28;20120;-70
2022/07/01 05:34:31;;;;;;;2.90;1.40;;;;;;;;;;5050096;28;20459;-72
2022/07/01 05:36:57;;;;;;;5.88;1.95;;;;;;;;;;5048819;28;20025;-72
2022/07/01 05:39:22;;;;;;;3.58;1.30;;;;;;;;;;5049876;28;20604;-71
2022/07/01 05:41:47;;;;;;;1.83;1.50;;;;;;;;;;5049752;28;20474;-72
2022/07/01 05:44:13;;;;;;;2.83;1.40;;;;;;;;;;5049973;28;20028;-71
2022/07/01 05:46:38;;;;;;;2.95;1.42;;;;;;;;;;5049836;28;20033;-70
2022/07/01 05:49:04;;;;;;;2.38;1.38;;;;;;;;;;5049683;28;20063;-70
2022/07/01 05:51:30;;;;;;;3.30;1.50;;;;;;;;;;5053238;28;20060;-71
2022/07/01 05:53:56;;;;;;;4.40;1.60;;;;;;;;;;5049590;28;20025;-72
2022/07/01 05:56:21;;;;;;;3.83;1.10;;;;;;;;;;5049685;28;20698;-71
2022/07/01 05:58:47;;;;;;;3.22;1.35;;;;;;;;;;5053570;28;20059;-72
2022/07/01 06:01:12;;;;;;;4.55;1.40;;;;;;;;;;5066600;28;20123;-70
2022/07/01 06:03:38;;;;;;;3.00;1.08;;;;;;;;;;5061058;28;20021;-69
2022/07/01 06:06:03;;;;;;;1.75;1.08;;;;;;;;;;5045907;28;20475;-71
2022/07/01 06:08:28;;;;;;;4.10;1.45;;;;;;;;;;5046841;28;20686;-72
2022/07/01 06:10:54;;;;;;;2.45;1.10;;;;;;;;;;5050003;28;20098;-70
2022/07/01 06:13:19;;;;;;;3.28;1.20;;;;;;;;;;5035494;28;20090;-71
2022/07/01 06:15:45;;;;;;;1.35;1.00;;;;;;;;;;5051857;28;20111;-72
2022/07/01 06:18:10;;;;;;;1.73;1.20;;;;;;;;;;5046767;28;20052;-74
2022/07/01 06:20:35;;;;;;;2.13;1.30;;;;;;;;;;5044531;28;20064;-71
2022/07/01 06:23:01;;;;;;;2.88;1.10;;;;;;;;;;5044627;28;20020;-71
2022/07/01 06:25:26;;;;;;;2.50;1.02;;;;;;;;;;5042575;28;20470;-70
2022/07/01 06:27:51;;;;;;;2.65;1.00;;;;;;;;;;5043225;28;20025;-70
2022/07/01 06:30:17;;;;;;;4.53;1.55;;;;;;;;;;5042936;28;20025;-74
2022/07/01 06:32:42;;;;;;;2.33;0.98;;;;;;;;;;5044173;28;20024;-70
2022/07/01 06:35:08;;;;;;;2.20;0.93;;;;;;;;;;5043974;28;20032;-71
2022/07/01 06:37:35;;;;;;;2.05;1.00;;;;;;;;;;5044437;28;20658;-71
2022/07/01 06:40:05;;;;;;;1.65;1.10;;;;;;;;;;5042687;28;20032;-71
2022/07/01 06:42:30;;;;;;;1.73;0.93;;;;;;;;;;5045414;28;20028;-69
2022/07/01 06:44:55;;;;;;;4.22;0.90;;;;;;;;;;5042102;28;20061;-72
2022/07/01 06:47:21;;;;;;;3.13;1.00;;;;;;;;;;5043400;28;20449;-71
2022/07/01 06:49:46;;;;;;;2.42;0.90;;;;;;;;;;5044516;28;20028;-71
2022/07/01 06:52:11;;;;;;;3.13;1.20;;;;;;;;;;5043247;28;20496;-71
2022/07/01 06:54:37;;;;;;;1.60;0.98;;;;;;;;;;5041844;28;20088;-70
2022/07/01 06:57:04;;;;;;;3.85;1.00;;;;;;;;;;5044707;28;20032;-70
2022/07/01 06:59:29;;;;;;;2.22;1.40;;;;;;;;;;5044185;28;20106;-70
2022/07/01 07:01:54;;;;;;;2.67;1.17;;;;;;;;;;5042359;28;20049;-74
2022/07/01 07:04:20;;;;;;;2.03;1.10;;;;;;;;;;5043690;28;20116;-72
2022/07/01 07:06:45;;;;;;;4.38;1.00;;;;;;;;;;5036841;28;20040;-74
2022/07/01 07:09:10;;;;;;;2.58;1.08;;;;;;;;;;5043435;28;20207;-74
2022/07/01 07:11:36;;;;;;;1.40;1.10;;;;;;;;;;5043917;28;20017;-70
2022/07/01 07:14:01;;;;;;;1.63;1.00;;;;;;;;;;5043658;28;20035;-70
2022/07/01 07:16:27;;;;;;;5.03;1.20;;;;;;;;;;5045562;28;20025;-71
2022/07/01 07:18:53;;;;;;;4.18;1.58;;;;;;;;;;5042573;28;20490;-73
2022/07/01 07:21:18;;;;;;;3.45;1.20;;;;;;;;;;5045697;28;20025;-72
2022/07/01 07:23:43;;;;;;;2.40;1.05;;;;;;;;;;5045811;28;20021;-73
2022/07/01 07:26:09;;;;;;;3.03;1.13;;;;;;;;;;5044965;28;20079;-73
2022/07/01 07:28:35;;;;;;;1.70;1.10;;;;;;;;;;5047168;28;20498;-74
2022/07/01 07:31:00;;;;;;;1.58;1.15;;;;;;;;;;5046659;28;20032;-72
2022/07/01 07:33:25;;;;;;;4.60;1.33;;;;;;;;;;5046799;28;20025;-72
2022/07/01 07:35:51;;;;;;;3.90;0.82;;;;;;;;;;5048178;28;20027;-72
2022/07/01 07:38:16;;;;;;;1.23;0.95;;;;;;;;;;5045996;28;20494;-76
2022/07/01 07:40:41;;;;;;;1.50;1.08;;;;;;;;;;5046371;28;20417;-73
2022/07/01 07:43:07;;;;;;;2.78;1.20;;;;;;;;;;5045652;28;20028;-74
2022/07/01 07:45:33;;;;;;;2.45;1.05;;;;;;;;;;5046382;28;20082;-74
2022/07/01 07:47:59;;;;;;;5.93;1.10;;;;;;;;;;5047352;28;20045;-72
2022/07/01 07:50:25;;;;;;;4.55;1.20;;;;;;;;;;5046672;28;20366;-74
2022/07/01 07:52:50;;;;;;;4.40;1.20;;;;;;;;;;5047311;28;20025;-71
2022/07/01 07:55:15;;;;;;;3.42;1.08;;;;;;;;;;5046673;28;20029;-74
2022/07/01 07:57:41;;;;;;;2.55;1.10;;;;;;;;;;5068509;22;20291;-72
2022/07/01 08:00:08;;;;;;;3.67;1.15;;;;;;;;;;5056668;28;20029;-72
2022/07/01 08:02:34;;;;;;;3.70;1.10;;;;;;;;;;5057394;28;20049;-75
2022/07/01 08:04:59;;;;;;;2.22;1.00;;;;;;;;;;5054797;28;20063;-74
2022/07/01 08:07:24;;;;;;;2.13;0.90;;;;;;;;;;5048608;28;20336;-75
2022/07/01 08:09:50;;;;;;;5.15;1.02;;;;;;;;;;5048320;28;20478;-74
2022/07/01 08:12:16;;;;;;;3.08;1.13;;;;;;;;;;5042454;28;20465;-72
2022/07/01 08:14:41;;;;;;;3.30;0.80;;;;;;;;;;5057730;28;20122;-74
2022/07/01 08:17:07;;;;;;;3.22;1.10;;;;;;;;;;5067508;28;20028;-75
2022/07/01 08:19:32;;;;;;;4.03;1.00;;;;;;;;;;5061260;28;20025;-73
2022/07/01 08:21:57;;;;;;;1.15;0.80;;;;;;;;;;5054957;28;20076;-76
2022/07/01 08:24:23;;;;;;;0.80;0.80;;;;;;;;;;5062659;28;20059;-72
2022/07/01 08:26:48;;;;;;;1.88;0.90;;;;;;;;;;5067881;28;20036;-73
2022/07/01 08:29:13;;;;;;;1.10;0.90;;;;;;;;;;5065720;28;20052;-72
2022/07/01 08:31:39;;;;;;;3.50;1.13;;;;;;;;;;5058772;28;21257;-71
2022/07/01 08:34:05;;;;;;;4.32;1.05;;;;;;;;;;5044591;28;20254;-73
2022/07/01 08:36:30;;;;;;;1.17;0.75;;;;;;;;;;5045328;28;20032;-72
2022/07/01 08:38:55;;;;;;;4.47;1.58;;;;;;;;;;5047340;28;20078;-71
2022/07/01 08:41:20;;;;;;;1.73;0.80;;;;;;;;;;5043646;28;20098;-73
2022/07/01 08:43:46;;;;;;;1.48;0.95;;;;;;;;;;5043376;28;20098;-74
2022/07/01 08:46:12;;;;;;;3.97;0.90;;;;;;;;;;5045373;28;20039;-75
2022/07/01 08:48:41;;;;;;;0.80;0.80;;;;;;;;;;5046383;28;20087;-73
2022/07/01 08:51:07;;;;;;;1.80;0.80;;;;;;;;;;5047969;28;20021;-72
2022/07/01 08:53:32;;;;;;;2.55;0.88;;;;;;;;;;5050490;28;20027;-75
2022/07/01 08:58:42;;;;;;;2.22;0.70;;;;;;;;;;5043590;28;20102;-72
2022/07/01 09:01:25;;;;;;;3.38;0.77;;;;;;;;;;5045982;28;20028;-73
2022/07/01 09:03:54;;;;;;;2.33;0.70;;;;;;;;;;5049877;28;20028;-74
2022/07/01 09:06:25;;;;;;;2.35;0.85;;;;;;;;;;5058540;28;20032;-72
2022/07/01 09:08:51;;;;;;;1.48;0.70;;;;;;;;;;5063253;28;20047;-72
2022/07/01 09:11:25;;;;;;;1.33;0.70;;;;;;;;;;5057029;28;20630;-74
2022/07/01 09:14:14;;;;;;;2.95;0.75;;;;;;;;;;5044254;28;20112;-74
2022/07/01 09:16:55;;;;;;;2.58;0.80;;;;;;;;;;5057747;28;20106;-72
2022/07/01 09:19:21;;;;;;;0.95;0.73;;;;;;;;;;5063844;28;20501;-72
2022/07/01 09:21:49;;;;;;;1.38;0.93;;;;;;;;;;5062720;28;20029;-75
2022/07/01 09:24:36;;;;;;;1.42;0.90;;;;;;;;;;5055129;28;20032;-71
2022/07/01 09:27:08;;;;;;;2.80;0.80;;;;;;;;;;5050770;28;20075;-76
2022/07/01 09:29:35;;;;;;;4.57;1.00;;;;;;;;;;5051486;28;20037;-75
2022/07/01 09:32:03;;;;;;;2.63;0.90;;;;;;;;;;5053029;28;20439;-75
2022/07/01 09:34:47;;;;;;;3.00;1.00;;;;;;;;;;5053611;28;20474;-76
2022/07/01 09:37:14;;;;;;;1.55;0.77;;;;;;;;;;5051526;28;20024;-74
2022/07/01 09:39:51;;;;;;;1.30;0.80;;;;;;;;;;5057618;28;20331;-72
2022/07/01 09:42:18;;;;;;;1.42;0.95;;;;;;;;;;5066040;28;20108;-73
2022/07/01 09:45:07;;;;;;;2.63;0.77;;;;;;;;;;5064928;28;20024;-72
2022/07/01 09:47:35;;;;;;;0.70;0.60;;;;;;;;;;5065520;28;20099;-74
2022/07/01 09:50:02;;;;;;;1.15;0.70;;;;;;;;;;5064929;28;20040;-74
2022/07/01 09:52:28;;;;;;;1.17;0.52;;;;;;;;;;5057734;28;20067;-73
2022/07/01 09:54:53;;;;;;;1.85;0.80;;;;;;;;;;5052551;28;20029;-73
2022/07/01 09:57:20;;;;;;;1.23;0.60;;;;;;;;;;5052560;28;20549;-73
2022/07/01 09:59:45;;;;;;;2.35;0.77;;;;;;;;;;5062096;28;20572;-72
2022/07/01 10:02:12;;;;;;;4.78;0.70;;;;;;;;;;5040804;28;20028;-73
2022/07/01 10:04:40;;;;;;;1.27;0.60;;;;;;;;;;5054741;28;20032;-74
2022/07/01 10:07:25;;;;;;;2.10;0.85;;;;;;;;;;5064632;28;20505;-73
2022/07/01 10:10:07;;;;;;;1.20;0.70;;;;;;;;;;5059188;28;20494;-72
2022/07/01 10:12:40;;;;;;;2.13;0.50;;;;;;;;;;5054494;28;20028;-75
2022/07/01 10:15:09;;;;;;;2.10;0.50;;;;;;;;;;5064380;28;20031;-73
2022/07/01 10:17:40;;;;;;;2.67;0.70;;;;;;;;;;5057450;28;20208;-74
2022/07/01 10:20:09;;;;;;;2.13;0.70;;;;;;;;;;5052529;28;20048;-73
2022/07/01 10:22:36;;;;;;;0.93;0.77;;;;;;;;;;5056585;28;20021;-74
2022/07/01 10:25:30;;;;;;;2.00;0.80;;;;;;;;;;5056125;28;20107;-73
2022/07/01 10:28:17;;;;;;;1.58;0.80;;;;;;;;;;5060267;28;20024;-74
2022/07/01 10:30:50;;;;;;;2.45;0.70;;;;;;;;;;5056440;28;20020;-75
2022/07/01 10:33:47;;;;;;;2.42;0.77;;;;;;;;;;5065453;28;20033;-72
2022/07/01 10:36:15;;;;;;;1.95;0.60;;;;;;;;;;5064419;28;20708;-72
2022/07/01 10:39:06;;;;;;;1.02;0.50;;;;;;;;;;5063852;28;20113;-74
2022/07/01 10:41:33;;;;;;;0.40;0.40;;;;;;;;;;5057790;28;20040;-75
2022/07/01 10:44:05;;;;;;;0.90;0.57;;;;;;;;;;5064688;28;20498;-72
2022/07/01 10:46:56;;;;;;;2.70;0.82;;;;;;;;;;5054937;28;20029;-75
2022/07/01 10:49:37;;;;;;;1.13;0.40;;;;;;;;;;5060391;28;20016;-74
2022/07/01 10:52:10;;;;;;;1.67;0.52;;;;;;;;;;5047455;28;20117;-74
2022/07/01 10:54:36;;;;;;;1.20;0.70;;;;;;;;;;5053761;28;20060;-74
2022/07/01 10:57:19;;;;;;;1.73;0.70;;;;;;;;;;5056051;28;20056;-73
2022/07/01 10:59:59;;;;;;;2.85;0.70;;;;;;;;;;5063658;28;20043;-74
2022/07/01 11:02:37;;;;;;;2.05;0.70;;;;;;;;;;5052113;28;20013;-73
2022/07/01 11:05:07;;;;;;;0.63;0.50;;;;;;;;;;5062628;28;20025;-73
2022/07/01 11:07:34;;;;;;;2.53;0.73;;;;;;;;;;5057334;28;20104;-73
2022/07/01 11:10:03;;;;;;;3.30;0.60;;;;;;;;;;5054537;28;20032;-74
2022/07/01 11:12:29;;;;;;;2.08;0.77;;;;;;;;;;5057889;28;20117;-73
2022/07/01 11:14:57;;;;;;;2.78;0.80;;;;;;;;;;5055466;28;20486;-72
2022/07/01 11:17:22;;;;;;;1.30;0.50;;;;;;;;;;5050778;28;20051;-71
2022/07/01 11:19:50;;;;;;;0.95;0.50;;;;;;;;;;5049365;28;20021;-75
2022/07/01 11:22:24;;;;;;;1.20;0.70;;;;;;;;;;5055338;28;20124;-74
2022/07/01 11:24:54;;;;;;;1.35;0.65;;;;;;;;;;5059749;28;20501;-74
2022/07/01 11:27:22;;;;;;;1.63;0.50;;;;;;;;;;5050027;28;20451;-72
2022/07/01 11:29:51;;;;;;;3.00;0.70;;;;;;;;;;5045865;28;20017;-74
2022/07/01 11:32:27;;;;;;;2.95;0.63;;;;;;;;;;5060352;28;20537;-74
2022/07/01 11:34:53;;;;;;;1.33;0.82;;;;;;;;;;5064238;28;20044;-71
2022/07/01 11:40:07;;;;;;;1.70;0.77;;;;;;;;;;5048885;28;20529;-72
2022/07/01 11:42:33;;;;;;;1.40;0.80;;;;;;;;;;5059957;28;20031;-75
2022/07/01 11:44:58;;;;;;;0.80;0.55;;;;;;;;;;5049821;28;20112;-72
2022/07/01 11:47:25;;;;;;;1.87;0.60;;;;;;;;;;5043808;28;20025;-73
2022/07/01 11:49:51;;;;;;;2.05;0.60;;;;;;;;;;5044058;28;20792;-71
2022/07/01 11:52:19;;;;;;;1.00;0.60;;;;;;;;;;5044719;28;20116;-73
2022/07/01 11:54:47;;;;;;;2.30;0.65;;;;;;;;;;5044184;28;20471;-72
2022/07/01 11:57:16;;;;;;;2.42;0.70;;;;;;;;;;5045132;28;20013;-75
2022/07/01 11:59:43;;;;;;;1.80;0.55;;;;;;;;;;5050101;28;20148;-74
2022/07/01 12:02:11;;;;;;;2.08;0.60;;;;;;;;;;5054489;28;20413;-72
2022/07/01 12:04:36;;;;;;;1.83;0.50;;;;;;;;;;5053938;28;20071;-75
2022/07/01 12:07:02;;;;;;;1.90;0.60;;;;;;;;;;5055478;28;20085;-72
2022/07/01 12:09:28;;;;;;;1.10;0.50;;;;;;;;;;5051339;28;20024;-72
2022/07/01 12:11:53;;;;;;;1.40;0.50;;;;;;;;;;5055361;28;20031;-72
2022/07/01 12:14:30;;;;;;;4.13;0.95;;;;;;;;;;5047177;28;20482;-72
2022/07/01 12:16:58;;;;;;;1.17;0.70;;;;;;;;;;5055646;28;20478;-74
2022/07/01 12:19:28;;;;;;;2.65;0.68;;;;;;;;;;5047908;28;20040;-73
2022/07/01 12:21:58;;;;;;;4.05;0.70;;;;;;;;;;5051526;28;20031;-75
2022/07/01 12:24:24;;;;;;;0.40;0.40;;;;;;;;;;5059333;28;20024;-71
2022/07/01 12:26:58;;;;;;;1.30;0.85;;;;;;;;;;5067629;28;20139;-74
2022/07/01 12:29:28;;;;;;;2.53;0.80;;;;;;;;;;5067197;28;20029;-73
2022/07/01 12:31:54;;;;;;;0.82;0.47;;;;;;;;;;5068379;28;20043;-73
2022/07/01 12:34:20;;;;;;;0.95;0.70;;;;;;;;;;5060752;28;20060;-74
2022/07/01 12:36:50;;;;;;;1.83;0.90;;;;;;;;;;5049538;28;20465;-74
2022/07/01 12:39:15;;;;;;;2.58;0.50;;;;;;;;;;5052382;28;20482;-73
2022/07/01 12:41:49;;;;;;;1.80;0.63;;;;;;;;;;5054622;28;20083;-72
2022/07/01 12:44:25;;;;;;;1.67;0.57;;;;;;;;;;5050510;28;20116;-69
2022/07/01 12:46:51;;;;;;;0.90;0.70;;;;;;;;;;5045987;28;20119;-70
2022/07/01 12:49:24;;;;;;;1.10;0.70;;;;;;;;;;5055373;28;20033;-72
2022/07/01 12:51:51;;;;;;;0.77;0.57;;;;;;;;;;5054526;28;20028;-72
2022/07/01 12:54:34;;;;;;;0.32;0.30;;;;;;;;;;5055091;28;20031;-72
2022/07/01 12:57:00;;;;;;;1.45;0.80;;;;;;;;;;5027176;28;20034;-71
2022/07/01 12:59:26;;;;;;;4.55;0.90;;;;;;;;;;5026416;28;20042;-71
2022/07/01 13:01:51;;;;;;;2.65;0.70;;;;;;;;;;5027059;28;20025;-71
2022/07/01 13:04:29;;;;;;;3.28;0.80;;;;;;;;;;5042195;28;20223;-70
2022/07/01 13:06:54;;;;;;;2.58;0.80;;;;;;;;;;5042733;28;20115;-70
2022/07/01 13:09:20;;;;;;;1.02;0.70;;;;;;;;;;5057526;28;20104;-70
2022/07/01 13:11:45;;;;;;;1.70;0.70;;;;;;;;;;5062868;28;20136;-72
2022/07/01 13:14:11;;;;;;;2.95;0.70;;;;;;;;;;5054384;28;20518;-70
2022/07/01 13:16:36;;;;;;;2.97;0.70;;;;;;;;;;5063769;28;20108;-71
2022/07/01 13:19:01;;;;;;;0.60;0.50;;;;;;;;;;5056338;28;20115;-71
2022/07/01 13:21:27;;;;;;;1.38;0.63;;;;;;;;;;5048222;28;20029;-71
2022/07/01 13:23:52;;;;;;;1.08;0.60;;;;;;;;;;5061636;28;20066;-74
2022/07/01 13:26:17;;;;;;;2.17;0.60;;;;;;;;;;5068867;28;20031;-73
2022/07/01 13:28:43;;;;;;;0.65;0.50;;;;;;;;;;5069637;28;20024;-73
2022/07/01 13:31:08;;;;;;;3.03;0.50;;;;;;;;;;5069910;28;20028;-73
2022/07/01 13:33:33;;;;;;;1.45;0.57;;;;;;;;;;5069669;28;20035;-73
2022/07/01 13:35:58;;;;;;;0.73;0.50;;;;;;;;;;5069836;28;20031;-72
2022/07/01 13:38:24;;;;;;;1.50;0.60;;;;;;;;;;5069488;28;20111;-73
2022/07/01 13:40:49;;;;;;;1.73;0.52;;;;;;;;;;5069855;28;20021;-72
2022/07/01 13:43:16;;;;;;;2.25;0.57;;;;;;;;;;5069941;28;20466;-73
2022/07/01 13:45:42;;;;;;;0.60;0.45;;;;;;;;;;5069682;28;20051;-70
2022/07/01 13:48:07;;;;;;;1.42;0.57;;;;;;;;;;5069541;28;20499;-74
2022/07/01 13:50:33;;;;;;;0.73;0.57;;;;;;;;;;5069461;28;20017;-70
2022/07/01 13:52:58;;;;;;;3.03;0.50;;;;;;;;;;5069531;28;20455;-72
2022/07/01 13:55:24;;;;;;;2.47;0.65;;;;;;;;;;5069368;28;20497;-70
2022/07/01 13:57:49;;;;;;;1.17;0.57;;;;;;;;;;5065887;28;20032;-71
2022/07/01 14:00:15;;;;;;;0.52;0.40;;;;;;;;;;5069141;28;20082;-73
2022/07/01 14:02:40;;;;;;;0.60;0.50;;;;;;;;;;5068944;28;20493;-74
2022/07/01 14:05:06;;;;;;;2.60;0.50;;;;;;;;;;5069144;28;20028;-72
2022/07/01 14:07:31;;;;;;;0.60;0.50;;;;;;;;;;5069572;28;20036;-71
2022/07/01 14:09:57;;;;;;;1.05;0.57;;;;;;;;;;5068813;28;20398;-72
2022/07/01 14:12:22;;;;;;;1.83;0.60;;;;;;;;;;5069193;28;20440;-72
2022/07/01 14:14:47;;;;;;;2.05;0.50;;;;;;;;;;5068733;28;20367;-73
2022/07/01 14:17:13;;;;;;;1.00;0.52;;;;;;;;;;5068841;28;20028;-72
2022/07/01 14:19:38;;;;;;;1.30;0.63;;;;;;;;;;5068791;28;20210;-74
2022/07/01 14:22:04;;;;;;;1.35;0.52;;;;;;;;;;5068767;28;20032;-71
2022/07/01 14:24:29;;;;;;;1.35;0.50;;;;;;;;;;5068819;28;20032;-73
2022/07/01 14:26:54;;;;;;;2.75;0.80;;;;;;;;;;5068831;28;20025;-71
2022/07/01 14:29:20;;;;;;;0.65;0.52;;;;;;;;;;5068681;28;20485;-73
2022/07/01 14:31:46;;;;;;;1.05;0.40;;;;;;;;;;5068681;28;20492;-72
2022/07/01 14:34:11;;;;;;;1.67;0.60;;;;;;;;;;5068022;28;20021;-72
2022/07/01 14:36:36;;;;;;;0.60;0.50;;;;;;;;;;5068694;28;20024;-73
2022/07/01 14:39:02;;;;;;;1.05;0.50;;;;;;;;;;5068068;28;20052;-71
2022/07/01 14:41:27;;;;;;;4.00;0.55;;;;;;;;;;5068350;28;20031;-73
2022/07/01 14:43:53;;;;;;;1.13;0.55;;;;;;;;;;5068388;28;20128;-72
2022/07/01 14:46:18;;;;;;;1.88;0.65;;;;;;;;;;5068341;28;20071;-71
2022/07/01 14:48:43;;;;;;;1.27;0.60;;;;;;;;;;5067943;28;20467;-70
2022/07/01 14:51:09;;;;;;;1.05;0.60;;;;;;;;;;5068409;28;20116;-74
2022/07/01 14:53:34;;;;;;;3.35;0.70;;;;;;;;;;5068406;28;20036;-73
2022/07/01 14:56:00;;;;;;;1.67;0.60;;;;;;;;;;5068372;28;20379;-74